Latest Weather Observations for Friendly Beaches

IDT60801

Issued at 9:35 am EDT Wednesday 26 November 2014 (issued every 30 minutes, with the page automatically refreshed every 10 minutes)

About weather observations | Map of weather stations | Latest weather observations for TAS | Other Formats
Station Details ID: 092114 Name: FRIENDLY BEACHES Lat: -42.00 Lon: 148.28 Height: 55.0 m
Data from the previous 72 hours. | See also: Recent months at Friendly Beaches
Date/Time
EDT
Temp
°C
App
Temp
°C
Dew
Point
Rel
Hum
%
Delta-T
°C
Wind Press
QNH
hPa
Press
MSL
hPa
Rain
since 9 am
mm
Dir
 
Spd
km/h
Gust
km/h
Spd
kts
Gust
kts
26/09:30am 15.8 10.8 3.6 44 5.6 WSW 19 33 10 18 1013.2 1013.2 0.0
26/09:00am 15.7 11.1 3.5 44 5.6 WSW 17 28 9 15 1012.8 1012.8 0.0
26/08:30am 13.9 9.4 6.0 59 3.8 WSW 19 33 10 18 1012.5 1012.5 0.0
26/08:00am 12.8 8.6 7.5 70 2.6 WSW 19 30 10 16 1012.1 1012.1 0.0
26/07:30am 13.0 10.0 7.5 69 2.7 SW 13 22 7 12 1011.7 1011.7 0.0
26/07:00am 13.3 11.6 7.7 69 2.8 SSW 6 9 3 5 1011.4 1011.4 0.0
26/06:30am 12.9 10.9 7.1 68 2.8 SW 7 11 4 6 1011.1 1011.1 0.0
26/06:00am 12.8 10.7 6.6 66 3.0 W 7 15 4 8 1010.7 1010.7 0.0
26/05:30am 12.3 10.2 5.9 65 3.0 NW 6 11 3 6 1010.3 1010.3 0.0
26/05:00am 12.2 10.0 5.4 63 3.2 NNW 6 11 3 6 1010.1 1010.0 0.0
26/04:30am 12.3 9.5 5.2 62 3.3 NW 9 19 5 10 1009.8 1009.7 0.0
26/04:00am 11.8 9.4 5.2 64 3.0 NW 7 15 4 8 1009.8 1009.7 0.0
26/03:30am 11.0 8.1 4.7 65 2.9 NW 9 17 5 9 1009.9 1009.8 0.0
26/03:00am 9.9 7.4 3.6 65 2.8 NW 6 7 3 4 1009.9 1009.8 0.0
26/02:30am 10.7 8.1 3.3 60 3.2 NNW 6 9 3 5 1010.5 1010.5 0.0
26/02:00am 11.8 9.1 3.6 57 3.7 N 7 17 4 9 1010.6 1010.6 0.0
26/01:30am 12.0 9.3 3.5 56 3.8 NW 7 17 4 9 1011.1 1011.1 0.0
26/01:00am 11.7 8.2 3.7 58 3.6 NW 11 17 6 9 1011.2 1011.2 0.0
26/12:30am 11.4 7.9 3.4 58 3.5 NW 11 17 6 9 1011.4 1011.4 0.0
26/12:00am 11.9 8.5 3.9 58 3.6 NW 11 24 6 13 1011.7 1011.7 0.0
 
Date/Time
EDT
Temp
°C
App
Temp
°C
Dew
Point
Rel
Hum
%
Delta-T
°C
Wind Press
QNH
hPa
Press
MSL
hPa
Rain
since 9 am
mm
Dir
 
Spd
km/h
Gust
km/h
Spd
kts
Gust
kts
25/11:30pm 12.1 8.2 3.3 55 3.9 WNW 13 20 7 11 1012.1 1012.1 0.0
25/11:00pm 10.9 8.4 3.7 61 3.2 NW 6 9 3 5 1012.2 1012.2 0.0
25/10:30pm 11.0 8.5 3.8 61 3.2 SW 6 7 3 4 1012.0 1012.0 0.0
25/10:00pm 11.5 9.0 3.5 58 3.5 SSW 6 9 3 5 1012.0 1012.0 0.0
25/09:30pm 12.4 9.8 3.4 54 4.0 SSW 6 11 3 6 1011.9 1011.9 0.0
25/09:00pm 13.6 9.9 2.5 47 4.9 SW 11 22 6 12 1011.4 1011.4 0.0
25/08:30pm 14.2 11.5 2.8 46 5.1 SSW 6 13 3 7 1011.1 1011.1 0.0
25/08:00pm 15.6 10.7 2.1 40 6.0 WSW 17 35 9 19 1010.4 1010.4 0.0
25/07:30pm 17.1 12.3 2.7 38 6.6 WSW 17 33 9 18 1009.8 1009.7 0.0
25/07:00pm 17.5 11.4 3.0 38 6.7 WSW 24 44 13 24 1009.1 1009.0 0.0
25/06:30pm 19.1 13.9 3.7 36 7.3 WSW 20 37 11 20 1008.6 1008.5 0.0
25/06:00pm 19.2 14.8 2.6 33 7.7 W 15 30 8 16 1008.0 1007.9 0.0
25/05:30pm 19.5 14.4 3.2 34 7.7 W 19 32 10 17 1007.8 1007.7 0.0
25/05:00pm 20.3 15.1 2.2 30 8.4 W 19 35 10 19 1007.6 1007.5 0.0
25/04:30pm 20.7 15.2 1.6 28 8.8 W 20 35 11 19 1007.3 1007.2 0.0
25/04:00pm 22.2 17.3 2.3 27 9.4 W 17 35 9 19 1007.0 1006.9 0.0
25/03:30pm 20.7 14.5 0.0 25 9.2 WSW 22 39 12 21 1006.9 1006.8 0.0
25/03:00pm 19.6 13.6 1.1 29 8.4 WSW 22 35 12 19 1006.8 1006.7 0.0
25/02:30pm 19.8 12.8 -0.2 26 8.8 W 26 46 14 25 1006.7 1006.6 0.0
25/02:06pm 21.2 14.0 1.0 26 9.2 W 28 46 15 25 1006.8 1006.7 0.0
25/02:00pm 21.3 14.9 1.0 26 9.3 W 24 46 13 25 1006.7 1006.6 0.0
25/01:30pm 20.7 14.6 2.5 30 8.5 WSW 24 41 13 22 1006.8 1006.7 0.0
25/01:00pm 20.9 14.9 3.2 31 8.4 WSW 24 41 13 22 1006.5 1006.4 0.0
25/12:30pm 20.2 13.3 2.5 31 8.2 SW 28 44 15 24 1006.2 1006.1 0.0
25/12:02pm 19.8 12.9 2.6 32 8.0 WSW 28 50 15 27 1006.1 1006.0 0.0
25/12:00pm 19.7 13.3 3.0 33 7.9 WSW 26 50 14 27 1006.1 1006.0 0.0
25/11:30am 18.9 12.6 3.9 37 7.1 WSW 26 41 14 22 1006.0 1005.9 0.0
25/11:00am 18.3 12.1 4.1 39 6.8 WSW 26 46 14 25 1006.1 1006.0 0.0
25/10:30am 18.3 11.2 3.8 38 6.8 WSW 30 57 16 31 1005.7 1005.6 0.0
25/10:26am 17.7 10.8 2.8 37 6.8 WSW 28 57 15 31 1005.7 1005.6 0.0
25/10:00am 17.3 12.1 3.6 40 6.4 WSW 20 33 11 18 1005.6 1005.5 0.0
25/09:30am 15.6 10.4 3.4 44 5.6 WSW 20 39 11 21 1005.7 1005.6 0.0
25/09:00am 15.3 10.3 4.4 48 5.1 W 20 35 11 19 1005.3 1005.2 1.2
25/08:30am 14.8 9.6 3.3 46 5.2 W 20 43 11 23 1004.7 1004.6 1.2
25/08:00am 14.3 8.9 4.6 52 4.5 W 22 37 12 20 1004.2 1004.1 1.2
25/07:30am 13.5 8.7 4.4 54 4.2 W 19 33 10 18 1003.8 1003.7 1.2
25/07:00am 12.7 7.6 4.2 56 3.9 W 20 41 11 22 1003.3 1003.2 1.2
25/06:30am 11.6 7.2 4.6 62 3.2 W 17 28 9 15 1003.0 1002.9 1.2
25/06:00am 10.9 8.0 4.4 64 2.9 W 9 22 5 12 1002.9 1002.8 1.2
25/05:30am 10.8 7.4 3.8 62 3.1 WNW 11 20 6 11 1002.1 1002.0 1.2
25/05:00am 11.1 6.5 3.6 60 3.3 W 17 28 9 15 1001.8 1001.7 1.2
25/04:30am 10.7 8.0 3.5 61 3.2 W 7 15 4 8 1001.9 1001.8 1.2
25/04:00am 10.8 5.6 3.8 62 3.1 WNW 20 33 11 18 1001.4 1001.3 1.2
25/03:30am 10.6 6.7 3.2 60 3.2 W 13 30 7 16 1002.0 1001.9 1.2
25/03:00am 10.1 6.9 2.9 61 3.1 WNW 9 22 5 12 1001.9 1001.8 1.2
25/02:30am 10.8 7.2 2.9 58 3.4 NW 11 20 6 11 1001.9 1001.8 1.2
25/02:00am 11.2 7.3 3.3 58 3.5 NW 13 22 7 12 1002.0 1001.9 1.2
25/01:30am 11.6 7.3 3.4 57 3.6 NW 15 24 8 13 1002.1 1002.0 1.2
25/01:00am 12.6 9.3 6.2 65 3.1 WNW 13 26 7 14 1002.2 1002.1 1.2
25/12:30am 12.8 9.8 6.2 64 3.1 W 11 17 6 9 1002.5 1002.4 1.2
25/12:00am 13.5 9.9 4.9 56 4.0 WSW 13 24 7 13 1002.7 1002.6 1.2
 
Date/Time
EDT
Temp
°C
App
Temp
°C
Dew
Point
Rel
Hum
%
Delta-T
°C
Wind Press
QNH
hPa
Press
MSL
hPa
Rain
since 9 am
mm
Dir
 
Spd
km/h
Gust
km/h
Spd
kts
Gust
kts
24/11:30pm 14.1 12.1 8.7 70 2.7 W 9 15 5 8 1002.7 1002.6 1.2
24/11:00pm 14.6 12.0 9.4 71 2.7 WSW 13 26 7 14 1002.6 1002.5 1.2
24/10:30pm 14.6 13.0 10.2 75 2.3 WSW 9 15 5 8 1002.9 1002.8 1.2
24/10:00pm 14.5 13.7 9.7 73 2.5 SW 4 9 2 5 1002.1 1002.0 1.2
24/09:30pm 15.5 12.7 10.1 70 2.8 WNW 15 28 8 15 1002.0 1001.9 1.2
24/09:00pm 15.7 13.8 10.5 71 2.8 WNW 11 17 6 9 1001.9 1001.8 1.2
24/08:30pm 15.4 14.5 11.2 76 2.3 NW 7 15 4 8 1002.0 1001.9 1.2
24/08:00pm 15.3 15.5 11.7 79 2.0 W 2 6 1 3 1001.7 1001.6 1.2
24/07:30pm 15.5 15.0 11.9 79 2.0 SW 6 9 3 5 1001.6 1001.5 1.2
24/07:00pm 15.3 15.2 12.2 82 1.7 WSW 4 6 2 3 1001.6 1001.5 1.2
24/06:30pm 15.2 13.8 12.2 82 1.6 NNW 11 19 6 10 1001.5 1001.4 1.2
24/06:00pm 15.1 12.5 12.1 82 1.6 N 17 32 9 17 1001.2 1001.2 1.2
24/05:30pm 15.2 12.1 12.3 83 1.6 N 20 35 11 19 1001.7 1001.6 1.2
24/05:00pm 15.7 12.6 12.3 80 1.9 N 20 33 11 18 1001.6 1001.5 1.2
24/04:30pm 17.3 14.3 12.4 73 2.7 N 20 32 11 17 1001.9 1001.8 1.2
24/04:00pm 16.3 12.4 12.1 76 2.3 NNE 24 37 13 20 1002.2 1002.1 1.2
24/03:30pm 15.1 12.9 12.2 83 1.6 NNE 15 26 8 14 1003.2 1003.1 1.2
24/03:00pm 15.1 13.9 11.5 79 1.9 NE 9 17 5 9 1004.2 1004.1 1.2
24/02:30pm 14.9 13.3 11.5 80 1.8 NNE 11 15 6 8 1005.4 1005.3 1.2
24/02:00pm 14.5 12.9 11.5 82 1.6 NNE 11 15 6 8 1006.0 1005.9 1.2
24/01:30pm 14.4 14.1 12.8 90 0.9 ENE 6 9 3 5 1006.7 1006.6 1.2
24/01:00pm 14.3 13.4 12.5 89 1.0 NE 9 15 5 8 1007.0 1006.9 1.2
24/12:30pm 14.2 13.4 12.8 91 0.8 NE 9 13 5 7 1007.4 1007.3 1.2
24/12:00pm 14.2 13.4 12.9 92 0.7 ENE 9 13 5 7 1007.7 1007.6 1.0
24/11:30am 14.5 13.4 13.0 91 0.8 SE 11 13 6 7 1007.9 1007.8 0.6
24/11:00am 14.5 14.1 12.4 87 1.1 SSE 6 9 3 5 1008.6 1008.5 0.2
24/10:30am 15.0 14.3 11.4 79 1.9 NE 6 11 3 6 1009.2 1009.1 0.0
24/10:00am 15.6 15.1 12.2 80 1.9 E 6 9 3 5 1008.9 1008.8 0.0
24/09:30am 14.6 13.7 10.6 77 2.1 SSE 6 9 3 5 1009.4 1009.3 0.0
24/09:00am 14.9 14.7 10.5 75 2.3 N 2 6 1 3 1009.6 1009.5 0.0
24/08:30am 15.1 14.4 9.9 71 2.7 N 4 7 2 4 1009.7 1009.6 0.0
24/08:00am 14.9 12.1 8.6 66 3.2 N 13 19 7 10 1009.1 1009.0 0.0
24/07:30am 14.1 12.7 9.5 74 2.4 NNE 7 11 4 6 1008.8 1008.7 0.0
24/07:00am 12.9 11.4 9.0 77 2.0 NNE 7 11 4 6 1009.7 1009.6 0.0
24/06:30am 12.2 10.9 7.7 74 2.2 NNW 4 6 2 3 1009.7 1009.6 0.0
24/06:00am 11.4 10.1 7.7 78 1.8 N 4 6 2 3 1009.8 1009.7 0.0
24/05:30am 11.4 9.9 8.6 83 1.4 W 6 7 3 4 1009.3 1009.2 0.0
24/05:00am 12.0 10.2 7.1 72 2.4 WNW 6 7 3 4 1009.6 1009.5 0.0
24/04:30am 11.7 10.2 9.3 85 1.2 WNW 7 9 4 5 1009.9 1009.8 0.0
24/04:00am 11.7 10.0 9.9 89 0.9 W 9 11 5 6 1009.9 1009.8 0.0
24/03:30am 11.8 9.8 10.0 89 0.9 WNW 11 13 6 7 1010.0 1009.9 0.0
24/03:00am 12.3 10.5 10.9 91 0.7 W 11 15 6 8 1009.8 1009.7 0.0
24/02:30am 12.3 11.1 11.5 95 0.4 W 9 11 5 6 1010.0 1009.9 0.0
24/02:00am 12.6 11.5 12.0 96 0.3 W 9 11 5 6 1010.2 1010.1 0.0
24/01:30am 12.5 11.7 11.7 95 0.4 NW 7 7 4 4 1010.6 1010.6 0.0
24/01:00am 12.9 12.4 12.1 95 0.4 W 6 7 3 4 1011.1 1011.1 0.0
24/12:30am 12.7 12.1 11.8 94 0.5 W 6 6 3 3 1011.3 1011.3 0.0
24/12:00am 13.0 12.5 11.9 93 0.6 S 6 7 3 4 1011.1 1011.1 0.0
 
Date/Time
EDT
Temp
°C
App
Temp
°C
Dew
Point
Rel
Hum
%
Delta-T
°C
Wind Press
QNH
hPa
Press
MSL
hPa
Rain
since 9 am
mm
Dir
 
Spd
km/h
Gust
km/h
Spd
kts
Gust
kts
23/11:30pm 13.2 12.7 11.9 92 0.7 SSE 6 7 3 4 1011.4 1011.4 0.0
23/11:00pm 13.4 13.0 12.3 93 0.6 S 6 7 3 4 1011.4 1011.4 0.0
23/10:30pm 13.4 13.6 12.0 91 0.8 S 2 6 1 3 1011.5 1011.5 0.0
23/10:00pm 14.0 13.5 12.2 89 1.0 SE 6 7 3 4 1011.3 1011.3 0.0
23/09:30pm 14.3 13.8 12.0 86 1.2 ESE 6 7 3 4 1011.5 1011.5 0.0
23/09:00pm 15.0 14.1 12.7 86 1.3 E 9 20 5 11 1011.2 1011.2 0.0
23/08:30pm 15.4 15.1 12.7 84 1.5 NE 6 13 3 7 1011.0 1011.0 0.0
23/08:00pm 15.9 15.6 12.8 82 1.7 NE 6 11 3 6 1010.9 1010.9 0.0
23/07:30pm 16.0 14.4 12.9 82 1.7 ENE 13 20 7 11 1010.4 1010.4 0.0
23/07:00pm 16.4 16.0 12.9 80 2.0 ENE 7 13 4 7 1010.3 1010.3 0.0
23/06:30pm 16.9 15.8 13.2 79 2.1 ENE 11 17 6 9 1010.4 1010.4 0.0
23/06:00pm 17.5 16.2 12.6 73 2.7 ENE 11 15 6 8 1010.4 1010.4 0.0
23/05:30pm 18.8 17.3 13.0 69 3.3 NE 13 20 7 11 1010.2 1010.1 0.0
23/05:00pm 18.6 16.9 13.5 72 2.9 ENE 15 20 8 11 1009.6 1009.5 0.0
23/04:30pm 18.5 17.1 13.4 72 2.9 ENE 13 19 7 10 1009.6 1009.5 0.0
23/04:00pm 18.9 16.6 12.9 68 3.4 ENE 17 22 9 12 1009.4 1009.3 0.0
23/03:30pm 19.0 17.5 13.0 68 3.4 ENE 13 20 7 11 1009.4 1009.3 0.0
23/03:00pm 20.5 18.6 14.2 67 3.7 ENE 17 22 9 12 1009.5 1009.4 0.0
23/02:30pm 20.6 18.3 13.1 62 4.3 ENE 17 26 9 14 1009.6 1009.5 0.0
23/02:00pm 21.0 18.7 14.2 65 4.0 NE 19 28 10 15 1009.8 1009.7 0.0
23/01:30pm 21.1 18.4 13.0 60 4.6 NE 19 28 10 15 1009.7 1009.6 0.0
23/01:00pm 20.7 18.2 13.4 63 4.2 NE 19 26 10 14 1009.5 1009.4 0.0
23/12:30pm 20.1 18.6 13.1 64 4.0 E 13 17 7 9 1009.2 1009.1 0.0
23/12:00pm 19.9 18.0 13.1 65 3.9 E 15 20 8 11 1009.2 1009.1 0.0
23/11:30am 20.1 18.6 13.1 64 4.0 E 13 20 7 11 1009.2 1009.1 0.0
23/11:00am 20.1 17.8 13.1 64 4.0 ESE 17 22 9 12 1008.9 1008.8 0.0
23/10:30am 20.1 17.9 13.3 65 3.9 ESE 17 26 9 14 1008.6 1008.5 0.0
23/10:00am 19.6 16.5 12.1 62 4.2 ESE 20 30 11 16 1008.2 1008.1 0.0

Other Formats:

Comma delimited format used in spreadsheet applications
http://www.bom.gov.au/fwo/IDT60801/IDT60801.94987.axf

JavaScript Object Notation format (JSON) in row-major order
http://www.bom.gov.au/fwo/IDT60801/IDT60801.94987.json